sensor_id;sensor_type;location;lat;lon;timestamp;temperature;humidity
22996;DHT22;11664;49.774;8.650;2023-02-08T00:02:15;-1.90;99.90
22996;DHT22;11664;49.774;8.650;2023-02-08T00:04:41;-1.80;99.90
22996;DHT22;11664;49.774;8.650;2023-02-08T00:07:06;-1.90;99.90
22996;DHT22;11664;49.774;8.650;2023-02-08T00:09:32;-1.90;99.90
22996;DHT22;11664;49.774;8.650;2023-02-08T00:11:57;-1.90;99.90
22996;DHT22;11664;49.774;8.650;2023-02-08T00:14:23;-1.90;99.90
22996;DHT22;11664;49.774;8.650;2023-02-08T00:16:48;-1.90;99.90
22996;DHT22;11664;49.774;8.650;2023-02-08T00:19:14;-2.00;99.90
22996;DHT22;11664;49.774;8.650;2023-02-08T00:21:39;-2.00;99.90
22996;DHT22;11664;49.774;8.650;2023-02-08T00:24:05;-2.00;99.90
22996;DHT22;11664;49.774;8.650;2023-02-08T00:26:31;-2.10;99.90
22996;DHT22;11664;49.774;8.650;2023-02-08T00:28:56;-2.10;99.90
22996;DHT22;11664;49.774;8.650;2023-02-08T00:31:22;-2.00;99.90
22996;DHT22;11664;49.774;8.650;2023-02-08T00:33:47;-2.00;99.90
22996;DHT22;11664;49.774;8.650;2023-02-08T00:36:13;-2.00;99.90
22996;DHT22;11664;49.774;8.650;2023-02-08T00:38:39;-2.10;99.90
22996;DHT22;11664;49.774;8.650;2023-02-08T00:41:05;-2.00;99.90
22996;DHT22;11664;49.774;8.650;2023-02-08T00:43:30;-2.00;99.90
22996;DHT22;11664;49.774;8.650;2023-02-08T00:45:57;-2.10;99.90
22996;DHT22;11664;49.774;8.650;2023-02-08T00:48:24;-2.10;99.90
22996;DHT22;11664;49.774;8.650;2023-02-08T00:51:16;-2.10;99.90
22996;DHT22;11664;49.774;8.650;2023-02-08T00:53:44;-2.10;99.90
22996;DHT22;11664;49.774;8.650;2023-02-08T00:56:11;-2.10;99.90
22996;DHT22;11664;49.774;8.650;2023-02-08T00:58:37;-2.10;99.90
22996;DHT22;11664;49.774;8.650;2023-02-08T01:01:05;-2.10;99.90
22996;DHT22;11664;49.774;8.650;2023-02-08T01:03:35;-2.10;99.90
22996;DHT22;11664;49.774;8.650;2023-02-08T01:06:07;-2.20;99.90
22996;DHT22;11664;49.774;8.650;2023-02-08T01:08:32;-2.20;99.90
22996;DHT22;11664;49.774;8.650;2023-02-08T01:11:13;-2.20;99.90
22996;DHT22;11664;49.774;8.650;2023-02-08T01:13:40;-2.20;99.90
22996;DHT22;11664;49.774;8.650;2023-02-08T01:16:14;-2.20;99.90
22996;DHT22;11664;49.774;8.650;2023-02-08T01:18:41;-2.30;99.90
22996;DHT22;11664;49.774;8.650;2023-02-08T01:21:12;-2.20;99.90
22996;DHT22;11664;49.774;8.650;2023-02-08T01:23:38;-2.20;99.90
22996;DHT22;11664;49.774;8.650;2023-02-08T01:26:04;-2.10;99.90
22996;DHT22;11664;49.774;8.650;2023-02-08T01:28:31;-2.20;99.90
22996;DHT22;11664;49.774;8.650;2023-02-08T01:30:57;-2.30;99.90
22996;DHT22;11664;49.774;8.650;2023-02-08T01:33:22;-2.20;99.90
22996;DHT22;11664;49.774;8.650;2023-02-08T01:35:52;-2.30;99.90
22996;DHT22;11664;49.774;8.650;2023-02-08T01:38:18;-2.40;99.90
22996;DHT22;11664;49.774;8.650;2023-02-08T01:40:44;-2.50;99.90
22996;DHT22;11664;49.774;8.650;2023-02-08T01:43:23;-2.50;99.90
22996;DHT22;11664;49.774;8.650;2023-02-08T01:45:50;-2.50;99.90
22996;DHT22;11664;49.774;8.650;2023-02-08T01:48:21;-2.50;99.90
22996;DHT22;11664;49.774;8.650;2023-02-08T01:51:02;-2.50;99.90
22996;DHT22;11664;49.774;8.650;2023-02-08T01:53:31;-2.60;99.90
22996;DHT22;11664;49.774;8.650;2023-02-08T01:56:00;-2.60;99.90
22996;DHT22;11664;49.774;8.650;2023-02-08T01:58:29;-2.60;99.90
22996;DHT22;11664;49.774;8.650;2023-02-08T02:00:55;-2.60;99.90
22996;DHT22;11664;49.774;8.650;2023-02-08T02:03:22;-2.60;99.90
22996;DHT22;11664;49.774;8.650;2023-02-08T02:05:53;-2.60;99.90
22996;DHT22;11664;49.774;8.650;2023-02-08T02:08:20;-2.60;99.90
22996;DHT22;11664;49.774;8.650;2023-02-08T02:10:47;-2.60;99.90
22996;DHT22;11664;49.774;8.650;2023-02-08T02:13:20;-2.50;99.90
22996;DHT22;11664;49.774;8.650;2023-02-08T02:15:47;-2.50;99.90
22996;DHT22;11664;49.774;8.650;2023-02-08T02:18:21;-2.50;99.90
22996;DHT22;11664;49.774;8.650;2023-02-08T02:32:21;-2.50;99.90
22996;DHT22;11664;49.774;8.650;2023-02-08T02:37:36;-2.70;99.90
22996;DHT22;11664;49.774;8.650;2023-02-08T02:43:10;-2.70;99.90
22996;DHT22;11664;49.774;8.650;2023-02-08T02:54:22;-2.50;99.90
22996;DHT22;11664;49.774;8.650;2023-02-08T02:56:52;-2.50;99.90
22996;DHT22;11664;49.774;8.650;2023-02-08T02:59:20;-2.50;99.90
22996;DHT22;11664;49.774;8.650;2023-02-08T03:01:47;-2.50;99.90
22996;DHT22;11664;49.774;8.650;2023-02-08T03:17:51;-2.50;99.90
22996;DHT22;11664;49.774;8.650;2023-02-08T03:20:34;-2.50;99.90
22996;DHT22;11664;49.774;8.650;2023-02-08T03:23:11;-2.50;99.90
22996;DHT22;11664;49.774;8.650;2023-02-08T03:26:01;-2.40;99.90
22996;DHT22;11664;49.774;8.650;2023-02-08T03:31:14;-2.40;99.90
22996;DHT22;11664;49.774;8.650;2023-02-08T03:33:54;-2.50;99.90
22996;DHT22;11664;49.774;8.650;2023-02-08T03:36:26;-2.50;99.90
22996;DHT22;11664;49.774;8.650;2023-02-08T03:38:55;-2.60;99.90
22996;DHT22;11664;49.774;8.650;2023-02-08T03:41:29;-2.60;99.90
22996;DHT22;11664;49.774;8.650;2023-02-08T03:44:00;-2.70;99.90
22996;DHT22;11664;49.774;8.650;2023-02-08T03:46:30;-2.70;99.90
22996;DHT22;11664;49.774;8.650;2023-02-08T03:49:04;-2.60;99.90
22996;DHT22;11664;49.774;8.650;2023-02-08T03:51:33;-2.70;99.90
22996;DHT22;11664;49.774;8.650;2023-02-08T03:54:03;-2.70;99.90
22996;DHT22;11664;49.774;8.650;2023-02-08T03:59:37;-2.60;99.90
22996;DHT22;11664;49.774;8.650;2023-02-08T04:02:06;-2.60;99.90
22996;DHT22;11664;49.774;8.650;2023-02-08T04:04:36;-2.60;99.90
22996;DHT22;11664;49.774;8.650;2023-02-08T04:07:02;-2.60;99.90
22996;DHT22;11664;49.774;8.650;2023-02-08T04:09:28;-2.60;99.90
22996;DHT22;11664;49.774;8.650;2023-02-08T04:11:53;-2.70;99.90
22996;DHT22;11664;49.774;8.650;2023-02-08T04:14:19;-2.70;99.90
22996;DHT22;11664;49.774;8.650;2023-02-08T04:16:45;-2.70;99.90
22996;DHT22;11664;49.774;8.650;2023-02-08T04:19:10;-2.80;99.90
22996;DHT22;11664;49.774;8.650;2023-02-08T04:21:36;-2.80;99.90
22996;DHT22;11664;49.774;8.650;2023-02-08T04:24:02;-2.80;99.90
22996;DHT22;11664;49.774;8.650;2023-02-08T04:26:27;-2.80;99.90
22996;DHT22;11664;49.774;8.650;2023-02-08T04:28:53;-2.80;99.90
22996;DHT22;11664;49.774;8.650;2023-02-08T04:31:18;-2.80;99.90
22996;DHT22;11664;49.774;8.650;2023-02-08T04:33:44;-2.90;99.90
22996;DHT22;11664;49.774;8.650;2023-02-08T04:36:09;-2.90;99.90
22996;DHT22;11664;49.774;8.650;2023-02-08T04:38:35;-2.90;99.90
22996;DHT22;11664;49.774;8.650;2023-02-08T04:41:01;-3.00;99.90
22996;DHT22;11664;49.774;8.650;2023-02-08T04:43:26;-3.00;99.90
22996;DHT22;11664;49.774;8.650;2023-02-08T04:45:52;-3.00;99.90
22996;DHT22;11664;49.774;8.650;2023-02-08T04:48:18;-3.00;99.90
22996;DHT22;11664;49.774;8.650;2023-02-08T04:50:43;-3.00;99.90
22996;DHT22;11664;49.774;8.650;2023-02-08T04:53:09;-3.00;99.90
22996;DHT22;11664;49.774;8.650;2023-02-08T04:55:35;-2.90;99.90
22996;DHT22;11664;49.774;8.650;2023-02-08T04:58:00;-2.90;99.90
22996;DHT22;11664;49.774;8.650;2023-02-08T05:00:26;-2.80;99.90
22996;DHT22;11664;49.774;8.650;2023-02-08T05:02:53;-2.80;99.90
22996;DHT22;11664;49.774;8.650;2023-02-08T05:05:19;-2.50;99.90
22996;DHT22;11664;49.774;8.650;2023-02-08T05:07:44;-2.40;99.90
22996;DHT22;11664;49.774;8.650;2023-02-08T05:10:10;-2.40;99.90
22996;DHT22;11664;49.774;8.650;2023-02-08T05:12:35;-2.50;99.90
22996;DHT22;11664;49.774;8.650;2023-02-08T05:15:01;-2.50;99.90
22996;DHT22;11664;49.774;8.650;2023-02-08T05:17:26;-2.40;99.90
22996;DHT22;11664;49.774;8.650;2023-02-08T05:19:52;-2.50;99.90
22996;DHT22;11664;49.774;8.650;2023-02-08T05:22:17;-2.60;99.90
22996;DHT22;11664;49.774;8.650;2023-02-08T05:24:43;-2.60;99.90
22996;DHT22;11664;49.774;8.650;2023-02-08T05:27:09;-2.60;99.90
22996;DHT22;11664;49.774;8.650;2023-02-08T05:29:34;-2.50;99.90
22996;DHT22;11664;49.774;8.650;2023-02-08T05:32:00;-2.50;99.90
22996;DHT22;11664;49.774;8.650;2023-02-08T05:34:25;-2.50;99.90
22996;DHT22;11664;49.774;8.650;2023-02-08T05:36:50;-2.50;99.90
22996;DHT22;11664;49.774;8.650;2023-02-08T05:39:16;-2.40;99.90
22996;DHT22;11664;49.774;8.650;2023-02-08T05:41:41;-2.40;99.90
22996;DHT22;11664;49.774;8.650;2023-02-08T05:44:07;-2.40;99.90
22996;DHT22;11664;49.774;8.650;2023-02-08T05:46:32;-2.30;99.90
22996;DHT22;11664;49.774;8.650;2023-02-08T05:48:59;-2.20;99.90
22996;DHT22;11664;49.774;8.650;2023-02-08T05:51:25;-2.20;99.90
22996;DHT22;11664;49.774;8.650;2023-02-08T05:53:50;-2.30;99.90
22996;DHT22;11664;49.774;8.650;2023-02-08T05:56:16;-2.30;99.90
22996;DHT22;11664;49.774;8.650;2023-02-08T05:58:41;-2.30;99.90
22996;DHT22;11664;49.774;8.650;2023-02-08T06:01:08;-2.30;99.90
22996;DHT22;11664;49.774;8.650;2023-02-08T06:03:35;-2.30;99.90
22996;DHT22;11664;49.774;8.650;2023-02-08T06:06:01;-2.40;99.90
22996;DHT22;11664;49.774;8.650;2023-02-08T06:08:27;-2.10;99.90
22996;DHT22;11664;49.774;8.650;2023-02-08T06:10:53;-2.10;99.90
22996;DHT22;11664;49.774;8.650;2023-02-08T06:13:18;-2.20;99.90
22996;DHT22;11664;49.774;8.650;2023-02-08T06:15:43;-2.40;99.90
22996;DHT22;11664;49.774;8.650;2023-02-08T06:18:09;-2.40;99.90
22996;DHT22;11664;49.774;8.650;2023-02-08T06:20:36;-2.50;99.90
22996;DHT22;11664;49.774;8.650;2023-02-08T06:23:02;-2.60;99.90
22996;DHT22;11664;49.774;8.650;2023-02-08T06:25:27;-2.70;99.90
22996;DHT22;11664;49.774;8.650;2023-02-08T06:27:53;-2.70;99.90
22996;DHT22;11664;49.774;8.650;2023-02-08T06:30:19;-2.70;99.90
22996;DHT22;11664;49.774;8.650;2023-02-08T06:32:44;-2.80;99.90
22996;DHT22;11664;49.774;8.650;2023-02-08T06:35:10;-2.90;99.90
22996;DHT22;11664;49.774;8.650;2023-02-08T06:37:35;-2.80;99.90
22996;DHT22;11664;49.774;8.650;2023-02-08T06:40:01;-2.90;99.90
22996;DHT22;11664;49.774;8.650;2023-02-08T06:42:27;-3.00;99.90
22996;DHT22;11664;49.774;8.650;2023-02-08T06:44:53;-3.00;99.90
22996;DHT22;11664;49.774;8.650;2023-02-08T06:47:20;-3.00;99.90
22996;DHT22;11664;49.774;8.650;2023-02-08T06:49:46;-3.10;99.90
22996;DHT22;11664;49.774;8.650;2023-02-08T06:52:11;-3.10;99.90
22996;DHT22;11664;49.774;8.650;2023-02-08T06:54:37;-3.20;99.90
22996;DHT22;11664;49.774;8.650;2023-02-08T06:57:03;-3.10;99.90
22996;DHT22;11664;49.774;8.650;2023-02-08T06:59:28;-3.10;99.90
22996;DHT22;11664;49.774;8.650;2023-02-08T07:01:54;-3.10;99.90
22996;DHT22;11664;49.774;8.650;2023-02-08T07:04:20;-3.10;99.90
22996;DHT22;11664;49.774;8.650;2023-02-08T07:06:48;-3.20;99.90
22996;DHT22;11664;49.774;8.650;2023-02-08T07:09:15;-3.20;99.90
22996;DHT22;11664;49.774;8.650;2023-02-08T07:11:40;-3.20;99.90
22996;DHT22;11664;49.774;8.650;2023-02-08T07:14:06;-3.20;99.90
22996;DHT22;11664;49.774;8.650;2023-02-08T07:16:31;-3.20;99.90
22996;DHT22;11664;49.774;8.650;2023-02-08T07:18:57;-3.30;99.90
22996;DHT22;11664;49.774;8.650;2023-02-08T07:21:22;-3.30;99.90
22996;DHT22;11664;49.774;8.650;2023-02-08T07:23:48;-3.20;99.90
22996;DHT22;11664;49.774;8.650;2023-02-08T07:26:14;-3.30;99.90
22996;DHT22;11664;49.774;8.650;2023-02-08T07:28:39;-3.30;99.90
22996;DHT22;11664;49.774;8.650;2023-02-08T07:31:10;-3.20;99.90
22996;DHT22;11664;49.774;8.650;2023-02-08T07:33:37;-3.20;99.90
22996;DHT22;11664;49.774;8.650;2023-02-08T07:36:04;-3.30;99.90
22996;DHT22;11664;49.774;8.650;2023-02-08T07:38:30;-3.20;99.90
22996;DHT22;11664;49.774;8.650;2023-02-08T07:41:07;-3.20;99.90
22996;DHT22;11664;49.774;8.650;2023-02-08T07:43:34;-3.20;99.90
22996;DHT22;11664;49.774;8.650;2023-02-08T07:46:06;-3.20;99.90
22996;DHT22;11664;49.774;8.650;2023-02-08T07:48:33;-3.10;99.90
22996;DHT22;11664;49.774;8.650;2023-02-08T07:50:58;-3.20;99.90
22996;DHT22;11664;49.774;8.650;2023-02-08T07:53:24;-3.20;99.90
22996;DHT22;11664;49.774;8.650;2023-02-08T07:55:49;-3.20;99.90
22996;DHT22;11664;49.774;8.650;2023-02-08T07:58:15;-3.20;99.90
22996;DHT22;11664;49.774;8.650;2023-02-08T08:00:40;-3.20;99.90
22996;DHT22;11664;49.774;8.650;2023-02-08T08:03:06;-3.10;99.90
22996;DHT22;11664;49.774;8.650;2023-02-08T08:05:31;-3.10;99.90
22996;DHT22;11664;49.774;8.650;2023-02-08T08:07:57;-3.00;99.90
22996;DHT22;11664;49.774;8.650;2023-02-08T08:10:22;-3.00;99.90
22996;DHT22;11664;49.774;8.650;2023-02-08T08:12:48;-2.90;99.90
22996;DHT22;11664;49.774;8.650;2023-02-08T08:15:13;-2.80;99.90
22996;DHT22;11664;49.774;8.650;2023-02-08T08:17:39;-2.70;99.90
22996;DHT22;11664;49.774;8.650;2023-02-08T08:20:07;-2.60;99.90
22996;DHT22;11664;49.774;8.650;2023-02-08T08:22:33;-2.60;99.90
22996;DHT22;11664;49.774;8.650;2023-02-08T08:24:59;-2.50;99.90
22996;DHT22;11664;49.774;8.650;2023-02-08T08:27:24;-2.40;99.90
22996;DHT22;11664;49.774;8.650;2023-02-08T08:29:50;-2.30;99.90
22996;DHT22;11664;49.774;8.650;2023-02-08T08:32:16;-2.20;99.90
22996;DHT22;11664;49.774;8.650;2023-02-08T08:34:42;-2.20;99.90
22996;DHT22;11664;49.774;8.650;2023-02-08T08:37:08;-2.00;99.90
22996;DHT22;11664;49.774;8.650;2023-02-08T08:39:34;-1.90;99.90
22996;DHT22;11664;49.774;8.650;2023-02-08T08:42:01;-1.80;99.90
22996;DHT22;11664;49.774;8.650;2023-02-08T08:44:28;-1.70;99.90
22996;DHT22;11664;49.774;8.650;2023-02-08T08:46:55;-1.60;99.90
22996;DHT22;11664;49.774;8.650;2023-02-08T08:49:24;-1.50;99.90
22996;DHT22;11664;49.774;8.650;2023-02-08T08:51:50;-1.40;99.90
22996;DHT22;11664;49.774;8.650;2023-02-08T08:54:17;-1.30;99.90
22996;DHT22;11664;49.774;8.650;2023-02-08T08:56:43;-1.20;99.90
22996;DHT22;11664;49.774;8.650;2023-02-08T08:59:08;-1.10;99.90
22996;DHT22;11664;49.774;8.650;2023-02-08T09:01:34;-1.00;99.90
22996;DHT22;11664;49.774;8.650;2023-02-08T09:04:00;-0.80;99.90
22996;DHT22;11664;49.774;8.650;2023-02-08T09:06:25;-0.70;99.90
22996;DHT22;11664;49.774;8.650;2023-02-08T09:08:51;-0.60;99.90
22996;DHT22;11664;49.774;8.650;2023-02-08T09:11:17;-0.50;99.90
22996;DHT22;11664;49.774;8.650;2023-02-08T09:13:43;-0.40;99.90
22996;DHT22;11664;49.774;8.650;2023-02-08T09:16:15;-0.30;99.90
22996;DHT22;11664;49.774;8.650;2023-02-08T09:18:42;-0.20;99.90
22996;DHT22;11664;49.774;8.650;2023-02-08T09:21:13;-0.10;99.90
22996;DHT22;11664;49.774;8.650;2023-02-08T09:23:38;0.10;99.90
22996;DHT22;11664;49.774;8.650;2023-02-08T09:26:06;0.20;99.90
22996;DHT22;11664;49.774;8.650;2023-02-08T09:28:33;0.40;99.90
22996;DHT22;11664;49.774;8.650;2023-02-08T09:31:00;0.50;99.90
22996;DHT22;11664;49.774;8.650;2023-02-08T09:33:31;0.60;99.90
22996;DHT22;11664;49.774;8.650;2023-02-08T09:35:56;0.70;99.90
22996;DHT22;11664;49.774;8.650;2023-02-08T09:38:32;0.80;99.90
22996;DHT22;11664;49.774;8.650;2023-02-08T09:41:43;0.90;99.90
22996;DHT22;11664;49.774;8.650;2023-02-08T09:44:21;1.00;99.90
22996;DHT22;11664;49.774;8.650;2023-02-08T09:49:55;1.30;99.90
22996;DHT22;11664;49.774;8.650;2023-02-08T09:52:26;1.40;99.90
22996;DHT22;11664;49.774;8.650;2023-02-08T09:54:58;1.50;99.90
22996;DHT22;11664;49.774;8.650;2023-02-08T09:57:31;1.60;99.90
22996;DHT22;11664;49.774;8.650;2023-02-08T10:00:08;1.70;99.90
22996;DHT22;11664;49.774;8.650;2023-02-08T10:02:36;1.80;99.90
22996;DHT22;11664;49.774;8.650;2023-02-08T10:05:18;1.90;99.90
22996;DHT22;11664;49.774;8.650;2023-02-08T10:07:44;2.00;99.90
22996;DHT22;11664;49.774;8.650;2023-02-08T10:10:20;2.10;99.90
22996;DHT22;11664;49.774;8.650;2023-02-08T10:13:05;2.20;99.90
22996;DHT22;11664;49.774;8.650;2023-02-08T10:19:00;2.40;99.90
22996;DHT22;11664;49.774;8.650;2023-02-08T10:21:56;2.50;99.90
22996;DHT22;11664;49.774;8.650;2023-02-08T10:27:23;2.70;99.90
22996;DHT22;11664;49.774;8.650;2023-02-08T10:30:06;2.80;99.90
22996;DHT22;11664;49.774;8.650;2023-02-08T10:35:35;2.90;99.90
22996;DHT22;11664;49.774;8.650;2023-02-08T10:41:13;3.00;99.90
22996;DHT22;11664;49.774;8.650;2023-02-08T10:43:44;3.00;99.60
22996;DHT22;11664;49.774;8.650;2023-02-08T10:46:26;3.20;99.90
22996;DHT22;11664;49.774;8.650;2023-02-08T10:49:14;3.30;99.50
22996;DHT22;11664;49.774;8.650;2023-02-08T10:51:41;3.40;99.40
22996;DHT22;11664;49.774;8.650;2023-02-08T10:54:12;3.60;99.70
22996;DHT22;11664;49.774;8.650;2023-02-08T10:56:53;3.60;98.70
22996;DHT22;11664;49.774;8.650;2023-02-08T10:59:29;3.70;99.90
22996;DHT22;11664;49.774;8.650;2023-02-08T11:01:57;3.90;98.10
22996;DHT22;11664;49.774;8.650;2023-02-08T11:04:22;4.10;98.20
22996;DHT22;11664;49.774;8.650;2023-02-08T11:06:49;4.20;97.60
22996;DHT22;11664;49.774;8.650;2023-02-08T11:09:27;4.20;98.20
22996;DHT22;11664;49.774;8.650;2023-02-08T11:11:54;4.30;97.90
22996;DHT22;11664;49.774;8.650;2023-02-08T11:14:27;4.10;96.90
22996;DHT22;11664;49.774;8.650;2023-02-08T11:16:56;4.20;96.90
22996;DHT22;11664;49.774;8.650;2023-02-08T11:19:38;4.30;96.40
22996;DHT22;11664;49.774;8.650;2023-02-08T11:22:15;4.60;95.60
22996;DHT22;11664;49.774;8.650;2023-02-08T11:24:43;4.60;95.30
22996;DHT22;11664;49.774;8.650;2023-02-08T11:27:28;4.50;95.10
22996;DHT22;11664;49.774;8.650;2023-02-08T11:32:39;4.90;95.40
22996;DHT22;11664;49.774;8.650;2023-02-08T11:37:47;5.00;94.00
22996;DHT22;11664;49.774;8.650;2023-02-08T11:40:35;4.90;95.10
22996;DHT22;11664;49.774;8.650;2023-02-08T11:43:02;5.00;94.30
22996;DHT22;11664;49.774;8.650;2023-02-08T11:45:31;5.00;93.80
22996;DHT22;11664;49.774;8.650;2023-02-08T11:47:58;4.80;93.40
22996;DHT22;11664;49.774;8.650;2023-02-08T11:50:31;5.00;94.80
22996;DHT22;11664;49.774;8.650;2023-02-08T11:53:00;5.30;93.70
22996;DHT22;11664;49.774;8.650;2023-02-08T11:55:29;5.10;93.40
22996;DHT22;11664;49.774;8.650;2023-02-08T11:58:02;5.20;94.10
22996;DHT22;11664;49.774;8.650;2023-02-08T12:00:34;5.40;93.40
22996;DHT22;11664;49.774;8.650;2023-02-08T12:03:13;5.40;92.10
22996;DHT22;11664;49.774;8.650;2023-02-08T12:11:37;5.20;91.70
22996;DHT22;11664;49.774;8.650;2023-02-08T12:14:15;5.40;92.20
22996;DHT22;11664;49.774;8.650;2023-02-08T12:22:39;5.40;92.10
22996;DHT22;11664;49.774;8.650;2023-02-08T12:28:09;5.70;92.60
22996;DHT22;11664;49.774;8.650;2023-02-08T12:38:56;6.00;91.40
22996;DHT22;11664;49.774;8.650;2023-02-08T12:42:11;6.20;91.20
22996;DHT22;11664;49.774;8.650;2023-02-08T12:50:06;6.40;89.10
22996;DHT22;11664;49.774;8.650;2023-02-08T12:52:39;6.40;90.00
22996;DHT22;11664;49.774;8.650;2023-02-08T12:55:12;6.40;90.10
22996;DHT22;11664;49.774;8.650;2023-02-08T12:57:41;6.40;90.00
22996;DHT22;11664;49.774;8.650;2023-02-08T13:00:19;6.50;90.00
22996;DHT22;11664;49.774;8.650;2023-02-08T13:02:58;6.80;90.70
22996;DHT22;11664;49.774;8.650;2023-02-08T13:05:30;6.80;87.90
22996;DHT22;11664;49.774;8.650;2023-02-08T13:08:02;6.70;88.60
22996;DHT22;11664;49.774;8.650;2023-02-08T13:10:38;6.70;88.30
22996;DHT22;11664;49.774;8.650;2023-02-08T13:13:17;6.80;86.70
22996;DHT22;11664;49.774;8.650;2023-02-08T13:15:56;6.90;88.60
22996;DHT22;11664;49.774;8.650;2023-02-08T13:18:28;6.80;88.90
22996;DHT22;11664;49.774;8.650;2023-02-08T13:21:07;6.80;85.50
22996;DHT22;11664;49.774;8.650;2023-02-08T13:23:42;7.10;88.70
22996;DHT22;11664;49.774;8.650;2023-02-08T13:28:49;7.00;87.10
22996;DHT22;11664;49.774;8.650;2023-02-08T13:33:58;7.50;84.70
22996;DHT22;11664;49.774;8.650;2023-02-08T13:36:37;7.40;84.50
22996;DHT22;11664;49.774;8.650;2023-02-08T13:39:06;7.50;84.00
22996;DHT22;11664;49.774;8.650;2023-02-08T13:41:34;7.50;83.10
22996;DHT22;11664;49.774;8.650;2023-02-08T13:44:17;7.50;83.00
22996;DHT22;11664;49.774;8.650;2023-02-08T13:46:47;7.70;82.10
22996;DHT22;11664;49.774;8.650;2023-02-08T13:49:41;7.80;82.20
22996;DHT22;11664;49.774;8.650;2023-02-08T13:52:08;7.70;82.20
22996;DHT22;11664;49.774;8.650;2023-02-08T13:54:34;7.70;81.50
22996;DHT22;11664;49.774;8.650;2023-02-08T13:57:00;7.40;81.10
22996;DHT22;11664;49.774;8.650;2023-02-08T14:04:40;7.70;80.60
22996;DHT22;11664;49.774;8.650;2023-02-08T14:13:05;8.00;81.50
22996;DHT22;11664;49.774;8.650;2023-02-08T14:15:42;8.30;81.20
22996;DHT22;11664;49.774;8.650;2023-02-08T14:18:24;8.10;79.50
22996;DHT22;11664;49.774;8.650;2023-02-08T14:21:01;8.00;80.50
22996;DHT22;11664;49.774;8.650;2023-02-08T14:23:28;8.10;79.30
22996;DHT22;11664;49.774;8.650;2023-02-08T14:26:01;8.00;80.60
22996;DHT22;11664;49.774;8.650;2023-02-08T14:28:31;8.20;80.90
22996;DHT22;11664;49.774;8.650;2023-02-08T14:31:00;8.20;80.10
22996;DHT22;11664;49.774;8.650;2023-02-08T14:33:35;8.00;80.90
22996;DHT22;11664;49.774;8.650;2023-02-08T14:36:05;7.80;80.10
22996;DHT22;11664;49.774;8.650;2023-02-08T14:40:59;8.20;79.70
22996;DHT22;11664;49.774;8.650;2023-02-08T14:45:57;8.40;77.50
22996;DHT22;11664;49.774;8.650;2023-02-08T14:48:31;8.20;79.20
22996;DHT22;11664;49.774;8.650;2023-02-08T14:51:15;8.20;77.80
22996;DHT22;11664;49.774;8.650;2023-02-08T14:53:51;8.20;78.20
22996;DHT22;11664;49.774;8.650;2023-02-08T14:59:14;8.40;75.60
22996;DHT22;11664;49.774;8.650;2023-02-08T15:01:46;8.20;76.80
22996;DHT22;11664;49.774;8.650;2023-02-08T15:06:59;8.20;76.90
22996;DHT22;11664;49.774;8.650;2023-02-08T15:11:59;7.50;78.00
22996;DHT22;11664;49.774;8.650;2023-02-08T15:14:27;6.90;79.80
22996;DHT22;11664;49.774;8.650;2023-02-08T15:16:53;6.50;81.00
22996;DHT22;11664;49.774;8.650;2023-02-08T15:19:29;6.10;84.00
22996;DHT22;11664;49.774;8.650;2023-02-08T15:22:16;5.70;85.60
22996;DHT22;11664;49.774;8.650;2023-02-08T15:24:50;5.50;86.50
22996;DHT22;11664;49.774;8.650;2023-02-08T15:27:25;5.30;88.10
22996;DHT22;11664;49.774;8.650;2023-02-08T15:29:51;5.20;88.40
22996;DHT22;11664;49.774;8.650;2023-02-08T15:32:19;5.10;87.90
22996;DHT22;11664;49.774;8.650;2023-02-08T15:34:58;5.00;90.00
22996;DHT22;11664;49.774;8.650;2023-02-08T15:37:25;4.80;89.60
22996;DHT22;11664;49.774;8.650;2023-02-08T15:39:54;4.80;90.20
22996;DHT22;11664;49.774;8.650;2023-02-08T15:42:25;4.60;91.00
22996;DHT22;11664;49.774;8.650;2023-02-08T15:44:51;4.50;91.10
22996;DHT22;11664;49.774;8.650;2023-02-08T15:47:26;4.40;90.60
22996;DHT22;11664;49.774;8.650;2023-02-08T15:49:52;4.30;91.00
22996;DHT22;11664;49.774;8.650;2023-02-08T15:52:21;4.30;91.40
22996;DHT22;11664;49.774;8.650;2023-02-08T15:54:47;4.20;91.80
22996;DHT22;11664;49.774;8.650;2023-02-08T15:57:33;4.10;92.10
22996;DHT22;11664;49.774;8.650;2023-02-08T16:00:05;4.00;92.30
22996;DHT22;11664;49.774;8.650;2023-02-08T16:02:33;4.00;92.30
22996;DHT22;11664;49.774;8.650;2023-02-08T16:05:00;4.00;91.80
22996;DHT22;11664;49.774;8.650;2023-02-08T16:07:43;3.90;92.10
22996;DHT22;11664;49.774;8.650;2023-02-08T16:10:27;3.90;92.10
22996;DHT22;11664;49.774;8.650;2023-02-08T16:13:00;3.80;92.50
22996;DHT22;11664;49.774;8.650;2023-02-08T16:15:44;3.70;93.40
22996;DHT22;11664;49.774;8.650;2023-02-08T16:20:58;3.50;93.90
22996;DHT22;11664;49.774;8.650;2023-02-08T16:23:29;3.40;93.80
22996;DHT22;11664;49.774;8.650;2023-02-08T16:25:56;3.30;93.90
22996;DHT22;11664;49.774;8.650;2023-02-08T16:28:31;3.40;93.80
22996;DHT22;11664;49.774;8.650;2023-02-08T16:30:59;3.30;94.10
22996;DHT22;11664;49.774;8.650;2023-02-08T16:33:26;3.30;94.10
22996;DHT22;11664;49.774;8.650;2023-02-08T16:35:53;3.20;95.20
22996;DHT22;11664;49.774;8.650;2023-02-08T16:38:26;3.20;95.00
22996;DHT22;11664;49.774;8.650;2023-02-08T16:40:53;3.10;94.90
22996;DHT22;11664;49.774;8.650;2023-02-08T16:48:37;2.80;95.80
22996;DHT22;11664;49.774;8.650;2023-02-08T16:51:05;2.70;96.70
22996;DHT22;11664;49.774;8.650;2023-02-08T16:53:32;2.80;97.00
22996;DHT22;11664;49.774;8.650;2023-02-08T16:55:58;2.80;97.00
22996;DHT22;11664;49.774;8.650;2023-02-08T16:58:24;2.60;97.40
22996;DHT22;11664;49.774;8.650;2023-02-08T17:00:51;2.50;98.30
22996;DHT22;11664;49.774;8.650;2023-02-08T17:03:16;2.30;99.40
22996;DHT22;11664;49.774;8.650;2023-02-08T17:05:42;2.20;99.90
22996;DHT22;11664;49.774;8.650;2023-02-08T17:08:14;1.90;99.90
22996;DHT22;11664;49.774;8.650;2023-02-08T17:10:40;1.70;99.90
22996;DHT22;11664;49.774;8.650;2023-02-08T17:13:08;1.50;99.90
22996;DHT22;11664;49.774;8.650;2023-02-08T17:15:34;1.40;99.90
22996;DHT22;11664;49.774;8.650;2023-02-08T17:18:00;1.30;99.90
22996;DHT22;11664;49.774;8.650;2023-02-08T17:20:28;1.20;99.90
22996;DHT22;11664;49.774;8.650;2023-02-08T17:22:57;1.10;99.90
22996;DHT22;11664;49.774;8.650;2023-02-08T17:25:23;1.00;99.90
22996;DHT22;11664;49.774;8.650;2023-02-08T17:27:52;0.80;99.90
22996;DHT22;11664;49.774;8.650;2023-02-08T17:30:28;0.80;99.90
22996;DHT22;11664;49.774;8.650;2023-02-08T17:32:54;0.70;99.90
22996;DHT22;11664;49.774;8.650;2023-02-08T17:35:24;0.70;99.90
22996;DHT22;11664;49.774;8.650;2023-02-08T17:37:51;0.60;99.90
22996;DHT22;11664;49.774;8.650;2023-02-08T17:40:21;0.60;99.90
22996;DHT22;11664;49.774;8.650;2023-02-08T17:42:47;0.50;99.90
22996;DHT22;11664;49.774;8.650;2023-02-08T17:45:13;0.50;99.90
22996;DHT22;11664;49.774;8.650;2023-02-08T17:47:38;0.40;99.90
22996;DHT22;11664;49.774;8.650;2023-02-08T17:50:07;0.30;99.90
22996;DHT22;11664;49.774;8.650;2023-02-08T17:52:33;0.20;99.90
22996;DHT22;11664;49.774;8.650;2023-02-08T17:55:00;0.20;99.90
22996;DHT22;11664;49.774;8.650;2023-02-08T17:57:25;0.10;99.90
22996;DHT22;11664;49.774;8.650;2023-02-08T17:59:51;0.00;99.90
22996;DHT22;11664;49.774;8.650;2023-02-08T18:02:16;0.00;99.90
22996;DHT22;11664;49.774;8.650;2023-02-08T18:04:42;0.00;99.90